createdAt,value
2017-10-11T00:00:56.198Z,56.41
2017-10-11T00:02:08.451Z,56.7
2017-10-11T00:03:20.699Z,56.8
2017-10-11T00:04:32.942Z,56.51
2017-10-11T00:05:44.538Z,57.28
2017-10-11T00:06:56.783Z,56.8
2017-10-11T00:08:09.047Z,57.56
2017-10-11T00:09:21.601Z,57.28
2017-10-11T00:10:34.171Z,57.28
2017-10-11T00:11:46.418Z,57.28
2017-10-11T00:12:58.660Z,56.7
2017-10-11T00:14:10.909Z,56.89
2017-10-11T00:15:23.507Z,56.89
2017-10-11T00:16:36.075Z,56.89
2017-10-11T00:17:48.663Z,56.8
2017-10-11T00:19:00.915Z,57.65
2017-10-11T00:20:12.842Z,58.04
2017-10-11T00:21:25.405Z,57.37
2017-10-11T00:22:37.976Z,56.7
2017-10-11T00:23:50.574Z,56.7
2017-10-11T00:25:03.142Z,57.02
2017-10-11T00:26:15.390Z,56.89
2017-10-11T00:27:27.641Z,56.45
2017-10-11T00:28:39.904Z,56.8
2017-10-11T00:29:52.154Z,56.25
2017-10-11T00:31:04.721Z,56.16
2017-10-11T00:32:16.644Z,55.96
2017-10-11T00:33:28.887Z,56.35
2017-10-11T00:34:41.160Z,56.35
2017-10-11T00:35:53.729Z,57.02
2017-10-11T00:37:05.975Z,57.4
2017-10-11T00:38:18.220Z,56.92
2017-10-11T00:39:29.846Z,56.63
2017-10-11T00:40:42.391Z,57.21
2017-10-11T00:41:55.258Z,56.73
2017-10-11T00:43:07.828Z,56.25
2017-10-11T00:44:19.774Z,56.35
2017-10-11T00:45:31.694Z,56.54
2017-10-11T00:46:44.289Z,56.06
2017-10-11T00:47:56.865Z,56.06
2017-10-11T00:49:09.108Z,56.92
2017-10-11T00:50:21.026Z,57.4
2017-10-11T00:51:33.290Z,57.21
2017-10-11T00:52:45.860Z,57.59
2017-10-11T00:53:58.463Z,57.4
2017-10-11T00:55:10.384Z,57.56
2017-10-11T00:56:22.322Z,56.73
2017-10-11T00:57:34.271Z,56.73
2017-10-11T00:58:46.525Z,57.5
2017-10-11T00:59:58.469Z,56.89
2017-10-11T01:01:11.061Z,56.73
2017-10-11T01:02:23.633Z,56.54
2017-10-11T01:03:36.196Z,56.25
2017-10-11T01:04:48.749Z,56.54
2017-10-11T01:06:01.324Z,56.16
2017-10-11T01:07:13.566Z,57.4
2017-10-11T01:08:26.165Z,57.31
2017-10-11T01:09:38.107Z,56.25
2017-10-11T01:10:50.378Z,57.4
2017-10-11T01:12:02.625Z,56.92
2017-10-11T01:13:15.195Z,56.35
2017-10-11T01:14:27.765Z,57.11
2017-10-11T01:15:39.702Z,57.87
2017-10-11T01:16:51.950Z,57.4
2017-10-11T01:18:04.504Z,58.54
2017-10-11T01:19:17.076Z,57.97
2017-10-11T01:20:29.644Z,57.97
2017-10-11T01:21:42.214Z,57.59
2017-10-11T01:22:54.458Z,57.87
2017-10-11T01:24:06.722Z,58.36
2017-10-11T01:25:19.577Z,58.83
2017-10-11T01:26:31.821Z,58.07
2017-10-11T01:27:44.067Z,60.17
2017-10-11T01:28:56.637Z,59.69
2017-10-11T01:30:08.884Z,58.83
2017-10-11T01:31:21.453Z,59.41
2017-10-11T01:32:34.001Z,59.02
2017-10-11T01:33:46.570Z,58.93
2017-10-11T01:34:58.815Z,58.64
2017-10-11T01:36:11.078Z,58.64
2017-10-11T01:37:23.349Z,58.64
2017-10-11T01:38:35.929Z,58.83
2017-10-11T01:39:48.549Z,59.69
2017-10-11T01:41:00.797Z,59.78
2017-10-11T01:42:12.107Z,58.83
2017-10-11T01:43:24.036Z,59.12
2017-10-11T01:44:36.615Z,59.5
2017-10-11T01:45:49.177Z,60.55
2017-10-11T01:47:02.046Z,60.55
2017-10-11T01:48:14.617Z,60.17
2017-10-11T01:49:27.194Z,59.88
2017-10-11T01:50:39.129Z,59.88
2017-10-11T01:51:51.055Z,60.07
2017-10-11T01:53:03.300Z,59.59
2017-10-11T01:54:15.238Z,59.98
2017-10-11T01:55:27.166Z,60.84
2017-10-11T01:56:39.412Z,60.36
2017-10-11T01:57:51.664Z,60.17
2017-10-11T01:59:03.595Z,60.74
2017-10-11T02:00:15.853Z,62.27
2017-10-11T02:01:28.420Z,60.55
2017-10-11T02:02:40.690Z,60.55
2017-10-11T02:03:52.937Z,60.27
2017-10-11T02:05:04.858Z,60.93
2017-10-11T02:06:16.800Z,60.17
2017-10-11T02:07:29.048Z,60.64
2017-10-11T02:08:40.994Z,60.74
2017-10-11T02:09:53.566Z,63.32
2017-10-11T02:11:05.512Z,62.37
2017-10-11T02:12:17.432Z,62.46
2017-10-11T02:13:29.352Z,61.51
2017-10-11T02:14:41.273Z,60.55
2017-10-11T02:15:53.843Z,60.55
2017-10-11T02:17:05.765Z,60.64
2017-10-11T02:18:17.384Z,60.07
2017-10-11T02:19:29.573Z,59.88
2017-10-11T02:20:42.163Z,58.73
2017-10-11T02:21:54.422Z,58.45
2017-10-11T02:23:06.984Z,58.83
2017-10-11T02:24:19.215Z,58.36
2017-10-11T02:25:31.151Z,57.87
2017-10-11T02:26:43.704Z,57.59
2017-10-11T02:27:56.275Z,57.31
2017-10-11T02:29:08.220Z,56.54
2017-10-11T02:30:20.467Z,56.54
2017-10-11T02:31:33.038Z,56.25
2017-10-11T02:32:45.300Z,56.06
2017-10-11T02:33:57.553Z,55.58
2017-10-11T02:35:09.798Z,55.4
2017-10-11T02:36:22.045Z,55.11
2017-10-11T02:37:33.643Z,54.91
2017-10-11T02:38:45.589Z,54.44
2017-10-11T02:39:57.831Z,54.63
2017-10-11T02:41:10.379Z,54.22
2017-10-11T02:42:22.624Z,54.03
2017-10-11T02:43:34.868Z,53.93
2017-10-11T02:44:47.144Z,53.67
2017-10-11T02:45:59.726Z,53.36
2017-10-11T02:47:12.298Z,52.79
2017-10-11T02:48:24.575Z,52.5
2017-10-11T02:49:36.521Z,52.59
2017-10-11T02:50:48.768Z,52.31
2017-10-11T02:52:01.362Z,52.24
2017-10-11T02:53:13.625Z,52.22
2017-10-11T02:54:25.858Z,51.76
2017-10-11T02:55:37.793Z,51.64
2017-10-11T02:56:50.363Z,51.64
2017-10-11T02:58:02.917Z,51.57
2017-10-11T02:59:14.862Z,51.57
2017-10-11T03:00:27.107Z,51.64
2017-10-11T03:01:39.354Z,51.45
2017-10-11T03:02:51.927Z,51.93
2017-10-11T03:04:04.494Z,51.93
2017-10-11T03:05:17.067Z,51.64
2017-10-11T03:06:28.678Z,51.93
2017-10-11T03:07:41.238Z,51.64
2017-10-11T03:08:53.802Z,51.93
2017-10-11T03:10:06.047Z,51.35
2017-10-11T03:11:18.320Z,51.26
2017-10-11T03:12:30.564Z,51.07
2017-10-11T03:13:42.809Z,50.98
2017-10-11T03:14:54.731Z,50.98
2017-10-11T03:16:07.305Z,51.07
2017-10-11T03:17:18.913Z,51.07
2017-10-11T03:18:30.842Z,50.88
2017-10-11T03:19:43.412Z,51.07
2017-10-11T03:20:55.658Z,51.26
2017-10-11T03:22:07.905Z,51.17
2017-10-11T03:23:20.150Z,51.07
2017-10-11T03:24:32.396Z,50.98
2017-10-11T03:25:44.967Z,51.35
2017-10-11T03:26:57.211Z,51.26
2017-10-11T03:28:09.456Z,50.98
2017-10-11T03:29:22.028Z,51.26
2017-10-11T03:30:34.602Z,51.35
2017-10-11T03:31:47.186Z,51.07
2017-10-11T03:32:59.417Z,50.98
2017-10-11T03:34:11.664Z,50.98
2017-10-11T03:35:23.906Z,50.78
2017-10-11T03:36:36.153Z,50.69
2017-10-11T03:37:48.404Z,50.59
2017-10-11T03:39:00.960Z,50.78
2017-10-11T03:40:12.567Z,50.49
2017-10-11T03:41:24.185Z,50.4
2017-10-11T03:42:36.122Z,50.49
2017-10-11T03:43:48.701Z,50.4
2017-10-11T03:45:00.925Z,50.4
2017-10-11T03:46:13.792Z,50.31
2017-10-11T03:47:26.038Z,50.4
2017-10-11T03:48:37.660Z,50.31
2017-10-11T03:49:49.596Z,49.93
2017-10-11T03:51:02.150Z,49.83
2017-10-11T03:52:14.721Z,50.02
2017-10-11T03:53:27.291Z,49.64
2017-10-11T03:54:39.217Z,50.02
2017-10-11T03:55:51.782Z,50.02
2017-10-11T03:57:04.604Z,49.83
2017-10-11T03:58:17.192Z,49.83
2017-10-11T03:59:29.143Z,49.83
2017-10-11T04:00:41.390Z,50.21
2017-10-11T04:01:53.961Z,50.31
2017-10-11T04:03:05.880Z,50.49
2017-10-11T04:04:18.453Z,50.49
2017-10-11T04:05:30.073Z,50.49
2017-10-11T04:06:42.318Z,50.4
2017-10-11T04:07:55.140Z,50.59
2017-10-11T04:09:07.713Z,50.49
2017-10-11T04:10:19.956Z,50.59
2017-10-11T04:11:32.201Z,50.98
2017-10-11T04:12:44.445Z,50.49
2017-10-11T04:13:57.020Z,50.49
2017-10-11T04:15:09.263Z,50.4
2017-10-11T04:16:21.209Z,50.49
2017-10-11T04:17:33.455Z,50.02
2017-10-11T04:18:45.726Z,50.69
2017-10-11T04:19:58.295Z,50.88
2017-10-11T04:21:10.234Z,50.49
2017-10-11T04:22:22.491Z,50.4
2017-10-11T04:23:34.733Z,50.49
2017-10-11T04:24:47.302Z,50.98
2017-10-11T04:25:59.248Z,50.78
2017-10-11T04:27:11.170Z,50.78
2017-10-11T04:28:23.416Z,50.98
2017-10-11T04:29:35.337Z,50.49
2017-10-11T04:30:46.975Z,50.59
2017-10-11T04:31:59.527Z,50.31
2017-10-11T04:33:11.466Z,50.21
2017-10-11T04:34:24.044Z,50.4
2017-10-11T04:35:36.239Z,50.49
2017-10-11T04:36:48.809Z,50.69
2017-10-11T04:38:01.056Z,50.88
2017-10-11T04:39:13.625Z,50.59
2017-10-11T04:40:26.446Z,50.88
2017-10-11T04:41:38.991Z,50.88
2017-10-11T04:42:51.587Z,51.07
2017-10-11T04:44:03.850Z,51.07
2017-10-11T04:45:16.083Z,50.98
2017-10-11T04:46:28.325Z,50.78
2017-10-11T04:47:40.895Z,50.59
2017-10-11T04:48:53.467Z,50.49
2017-10-11T04:50:05.716Z,50.69
2017-10-11T04:51:17.963Z,50.98
2017-10-11T04:52:30.203Z,51.07
2017-10-11T04:53:42.776Z,50.88
2017-10-11T04:54:55.345Z,50.59
2017-10-11T04:56:07.592Z,50.59
2017-10-11T04:57:19.535Z,50.78
2017-10-11T04:58:32.106Z,50.78
2017-10-11T04:59:44.029Z,50.4
2017-10-11T05:00:56.315Z,50.4
2017-10-11T05:02:08.893Z,50.4
2017-10-11T05:03:21.515Z,50.21
2017-10-11T05:04:32.835Z,50.02
2017-10-11T05:05:45.412Z,50.4
2017-10-11T05:06:57.335Z,50.4
2017-10-11T05:08:09.915Z,50.59
2017-10-11T05:09:22.160Z,50.4
2017-10-11T05:10:34.714Z,50.02
2017-10-11T05:11:47.283Z,50.12
2017-10-11T05:12:59.797Z,49.93
2017-10-11T05:14:12.050Z,49.54
2017-10-11T05:15:24.621Z,49.54
2017-10-11T05:16:36.558Z,49.54
2017-10-11T05:17:48.812Z,49.54
2017-10-11T05:19:00.732Z,49.64
2017-10-11T05:20:13.302Z,49.44
2017-10-11T05:21:25.857Z,48.97
2017-10-11T05:22:37.470Z,48.78
2017-10-11T05:23:49.965Z,48.59
2017-10-11T05:25:02.537Z,48.59
2017-10-11T05:26:15.107Z,48.39
2017-10-11T05:27:27.351Z,48.59
2017-10-11T05:28:38.983Z,48.59
2017-10-11T05:29:51.245Z,48.49
2017-10-11T05:31:03.815Z,48.3
2017-10-11T05:32:16.060Z,48.11
2017-10-11T05:33:28.328Z,47.92
2017-10-11T05:34:40.551Z,48.11
2017-10-11T05:35:53.122Z,48.39
2017-10-11T05:37:05.368Z,47.82
2017-10-11T05:38:17.956Z,47.82
2017-10-11T05:39:30.237Z,48.02
2017-10-11T05:40:42.505Z,48.11
2017-10-11T05:41:54.749Z,47.82
2017-10-11T05:43:07.321Z,47.73
2017-10-11T05:44:19.894Z,47.44
2017-10-11T05:45:32.153Z,47.54
2017-10-11T05:46:44.407Z,47.34
2017-10-11T05:47:56.329Z,47.34
2017-10-11T05:49:08.599Z,47.44
2017-10-11T05:50:21.170Z,47.25
2017-10-11T05:51:33.740Z,47.44
2017-10-11T05:52:46.312Z,47.44
2017-10-11T05:53:58.562Z,47.44
2017-10-11T05:55:10.495Z,47.54
2017-10-11T05:56:22.748Z,47.54
2017-10-11T05:57:34.999Z,47.16
2017-10-11T05:58:47.240Z,47.34
2017-10-11T05:59:59.809Z,47.34
2017-10-11T06:01:12.380Z,47.44
2017-10-11T06:02:24.303Z,47.25
2017-10-11T06:03:36.546Z,47.25
2017-10-11T06:04:49.117Z,47.63
2017-10-11T06:06:01.691Z,46.3
2017-10-11T06:07:14.258Z,46.01
2017-10-11T06:08:26.522Z,45.34
2017-10-11T06:09:38.778Z,45.06
2017-10-11T06:10:51.045Z,44.58
2017-10-11T06:12:02.984Z,44.38
2017-10-11T06:13:15.236Z,44.01
2017-10-11T06:14:27.785Z,44.01
2017-10-11T06:15:40.033Z,44.1
2017-10-11T06:16:52.279Z,44.01
2017-10-11T06:18:04.843Z,43.53
2017-10-11T06:19:17.096Z,43.53
2017-10-11T06:20:29.340Z,43.72
2017-10-11T06:21:41.931Z,43.82
2017-10-11T06:22:54.526Z,43.72
2017-10-11T06:24:06.448Z,44.01
2017-10-11T06:25:18.692Z,43.62
2017-10-11T06:26:30.940Z,43.43
2017-10-11T06:27:43.526Z,43.82
2017-10-11T06:28:55.780Z,43.62
2017-10-11T06:30:08.353Z,43.82
2017-10-11T06:31:20.272Z,44.2
2017-10-11T06:32:32.193Z,44.38
2017-10-11T06:33:44.437Z,44.87
2017-10-11T06:34:57.007Z,44.58
2017-10-11T06:36:09.255Z,44.87
2017-10-11T06:37:21.850Z,44.77
2017-10-11T06:38:34.097Z,44.67
2017-10-11T06:39:46.343Z,44.48
2017-10-11T06:40:58.612Z,44.2
2017-10-11T06:42:10.858Z,44.2
2017-10-11T06:43:23.105Z,43.93
2017-10-11T06:44:35.348Z,44.6
2017-10-11T06:45:47.919Z,45.08
2017-10-11T06:47:00.490Z,45.17
2017-10-11T06:48:12.110Z,45.17
2017-10-11T06:49:24.383Z,44.7
2017-10-11T06:50:36.001Z,44.79
2017-10-11T06:51:48.575Z,45.08
2017-10-11T06:53:00.843Z,45.56
2017-10-11T06:54:13.087Z,46.13
2017-10-11T06:55:25.658Z,46.61
2017-10-11T06:56:37.907Z,46.32
2017-10-11T06:57:50.155Z,46.8
2017-10-11T06:59:02.088Z,47.68
2017-10-11T07:00:14.641Z,48.16
2017-10-11T07:01:26.839Z,48.44
2017-10-11T07:02:39.083Z,48.16
2017-10-11T07:03:51.328Z,48.25
2017-10-11T07:05:03.579Z,48.35
2017-10-11T07:06:15.521Z,48.07
2017-10-11T07:07:28.091Z,48.54
2017-10-11T07:08:40.667Z,49.4
2017-10-11T07:09:52.907Z,50.26
2017-10-11T07:11:05.477Z,51.89
2017-10-11T07:12:17.423Z,50.74
2017-10-11T07:13:29.994Z,51.89
2017-10-11T07:14:42.565Z,52.94
2017-10-11T07:15:54.816Z,52.67
2017-10-11T07:17:07.381Z,53.16
2017-10-11T07:18:19.627Z,53.7
2017-10-11T07:19:32.226Z,54.97
2017-10-11T07:20:44.810Z,55.74
2017-10-11T07:21:57.089Z,54.27
2017-10-11T07:23:09.909Z,54.3
2017-10-11T07:24:22.480Z,54.3
2017-10-11T07:25:34.752Z,55.07
2017-10-11T07:26:46.997Z,56.6
2017-10-11T07:27:58.593Z,55.93
2017-10-11T07:29:11.161Z,56.21
2017-10-11T07:30:23.409Z,58.03
2017-10-11T07:31:35.354Z,56.98
2017-10-11T07:32:47.274Z,57.36
2017-10-11T07:33:59.198Z,57.55
2017-10-11T07:35:11.765Z,58.22
2017-10-11T07:36:24.340Z,60.8
2017-10-11T07:37:36.906Z,58.89
2017-10-11T07:38:49.478Z,58.98
2017-10-11T07:40:02.049Z,60.33
2017-10-11T07:41:14.295Z,60.23
2017-10-11T07:42:26.907Z,58.51
2017-10-11T07:43:38.835Z,59.84
2017-10-11T07:44:51.123Z,59.66
2017-10-11T07:46:03.682Z,61.09
2017-10-11T07:47:15.621Z,60.71
2017-10-11T07:48:27.867Z,61.76
2017-10-11T07:49:40.439Z,61.28
2017-10-11T07:50:53.001Z,63.96
2017-10-11T07:52:05.555Z,64.05
2017-10-11T07:53:17.852Z,64.91
2017-10-11T07:54:30.422Z,63.39
2017-10-11T07:55:43.000Z,63.96
2017-10-11T07:56:55.563Z,64.15
2017-10-11T07:58:07.507Z,65.2
2017-10-11T07:59:20.101Z,68.16
2017-10-11T08:00:32.323Z,68.84
2017-10-11T08:01:44.571Z,68.07
2017-10-11T08:02:56.832Z,68.64
2017-10-11T08:04:08.761Z,69.41
2017-10-11T08:05:20.383Z,67.63
2017-10-11T08:06:32.653Z,69.35
2017-10-11T08:07:44.916Z,67.34
2017-10-11T08:08:57.170Z,68.77
2017-10-11T08:10:09.740Z,71.07
2017-10-11T08:11:22.010Z,72.22
2017-10-11T08:12:34.598Z,72.98
2017-10-11T08:13:46.852Z,72.12
2017-10-11T08:14:59.423Z,75.56
2017-10-11T08:16:11.667Z,80.82
2017-10-11T08:17:23.913Z,78.91
2017-10-11T08:18:36.168Z,77.38
2017-10-11T08:19:48.096Z,77.86
2017-10-11T08:21:00.676Z,77.76
2017-10-11T08:22:13.247Z,82.26
2017-10-11T08:23:25.172Z,80.1
2017-10-11T08:24:37.412Z,78.24
2017-10-11T08:25:49.982Z,81.05
2017-10-11T08:27:02.229Z,83.03
2017-10-11T08:28:14.799Z,82.64
2017-10-11T08:29:27.362Z,80
2017-10-11T08:30:39.616Z,79.43
2017-10-11T08:31:52.228Z,80.19
2017-10-11T08:33:04.156Z,83.06
2017-10-11T08:34:15.779Z,82.59
2017-10-11T08:35:28.023Z,82.2
2017-10-11T08:36:40.270Z,82.01
2017-10-11T08:37:52.215Z,79.81
2017-10-11T08:39:04.761Z,82.68
2017-10-11T08:40:17.031Z,85.75
2017-10-11T08:41:28.327Z,84.59
2017-10-11T08:42:40.600Z,84.55
2017-10-11T08:43:52.845Z,86.84
2017-10-11T08:45:05.118Z,87.8
2017-10-11T08:46:17.682Z,89.14
2017-10-11T08:47:29.930Z,88.18
2017-10-11T08:48:42.179Z,89.43
2017-10-11T08:49:54.422Z,90.19
2017-10-11T08:51:06.992Z,89.23
2017-10-11T08:52:19.238Z,91.44
2017-10-11T08:53:31.161Z,91.53
2017-10-11T08:54:43.421Z,92.35
2017-10-11T08:55:55.993Z,92.06
2017-10-11T08:57:08.245Z,91
2017-10-11T08:58:20.520Z,93.21
2017-10-11T08:59:32.787Z,92.44
2017-10-11T09:00:44.961Z,91.77
2017-10-11T09:01:57.552Z,91.34
2017-10-11T09:03:10.124Z,93.54
2017-10-11T09:04:22.069Z,93.26
2017-10-11T09:05:34.331Z,92.01
2017-10-11T09:06:46.584Z,92.97
2017-10-11T09:07:58.200Z,96.8
2017-10-11T09:09:10.777Z,96.03
2017-10-11T09:10:23.025Z,95.94
2017-10-11T09:11:35.268Z,98.05
2017-10-11T09:12:47.838Z,96.42
2017-10-11T09:14:00.085Z,95.46
2017-10-11T09:15:12.347Z,96.22
2017-10-11T09:16:24.900Z,96.22
2017-10-11T09:17:37.164Z,97.18
2017-10-11T09:18:49.417Z,97.56
2017-10-11T09:20:01.665Z,96.99
2017-10-11T09:21:13.925Z,96.37
2017-10-11T09:22:26.503Z,96.66
2017-10-11T09:23:39.093Z,95.22
2017-10-11T09:24:51.345Z,96.47
2017-10-11T09:26:03.284Z,96.56
2017-10-11T09:27:15.841Z,96.94
2017-10-11T09:28:28.406Z,98.57
2017-10-11T09:29:40.978Z,97.04
2017-10-11T09:30:53.548Z,96.66
2017-10-11T09:32:05.794Z,98.1
2017-10-11T09:33:18.042Z,97.52
2017-10-11T09:34:29.659Z,97.42
2017-10-11T09:35:41.906Z,97.9
2017-10-11T09:36:54.155Z,96.47
2017-10-11T09:38:06.739Z,96.94
2017-10-11T09:39:18.697Z,97.14
2017-10-11T09:40:31.264Z,96.75
2017-10-11T09:41:43.839Z,98.38
2017-10-11T09:42:55.773Z,96.66
2017-10-11T09:44:08.350Z,97.52
2017-10-11T09:45:20.920Z,97.04
2017-10-11T09:46:33.192Z,96.47
2017-10-11T09:47:45.762Z,95.98
2017-10-11T09:48:58.334Z,95.89
2017-10-11T09:50:10.903Z,96.47
2017-10-11T09:51:23.174Z,94.35
2017-10-11T09:52:35.748Z,95.03
2017-10-11T09:53:47.992Z,95.22
2017-10-11T09:55:00.579Z,96.56
2017-10-11T09:56:12.825Z,96.66
2017-10-11T09:57:24.753Z,97.33
2017-10-11T09:58:37.324Z,97.33
2017-10-11T09:59:49.893Z,97.14
2017-10-11T10:01:02.165Z,97.42
2017-10-11T10:02:14.110Z,96.75
2017-10-11T10:03:26.682Z,96.84
2017-10-11T10:04:39.251Z,99.53
2017-10-11T10:05:51.839Z,98
2017-10-11T10:07:03.769Z,97.8
2017-10-11T10:08:16.338Z,97.42
2017-10-11T10:09:28.284Z,98.38
2017-10-11T10:10:40.854Z,97.8
2017-10-11T10:11:52.776Z,98.38
2017-10-11T10:13:05.364Z,98.47
2017-10-11T10:14:17.940Z,98.57
2017-10-11T10:15:29.888Z,98
2017-10-11T10:16:42.475Z,99.19
2017-10-11T10:17:54.721Z,98.43
2017-10-11T10:19:07.274Z,97.56
2017-10-11T10:20:19.538Z,97.66
2017-10-11T10:21:31.466Z,98.24
2017-10-11T10:22:43.412Z,97.47
2017-10-11T10:23:55.982Z,98.24
2017-10-11T10:25:08.553Z,96.8
2017-10-11T10:26:21.124Z,96.51
2017-10-11T10:27:33.068Z,96.42
2017-10-11T10:28:45.631Z,95.84
2017-10-11T10:29:58.185Z,96.8
2017-10-11T10:31:10.156Z,96.42
2017-10-11T10:32:22.727Z,96.61
2017-10-11T10:33:34.971Z,96.7
2017-10-11T10:34:47.234Z,96.32
2017-10-11T10:35:59.163Z,94.98
2017-10-11T10:37:11.735Z,95.84
2017-10-11T10:38:24.608Z,95.17
2017-10-11T10:39:37.176Z,95.27
2017-10-11T10:40:49.745Z,94.5
2017-10-11T10:42:01.991Z,94.98
2017-10-11T10:43:14.564Z,94.4
2017-10-11T10:44:27.125Z,95.46
2017-10-11T10:45:39.682Z,95.27
2017-10-11T10:46:52.249Z,93.93
2017-10-11T10:48:04.826Z,92.3
2017-10-11T10:49:17.083Z,89.81
2017-10-11T10:50:29.653Z,89.72
2017-10-11T10:51:42.235Z,87.41
2017-10-11T10:52:54.795Z,88.18
2017-10-11T10:54:07.041Z,87.8
2017-10-11T10:55:19.619Z,87.9
2017-10-11T10:56:31.563Z,86.27
2017-10-11T10:57:43.484Z,85.69
2017-10-11T10:58:56.054Z,85.5
2017-10-11T11:00:08.300Z,84.88
2017-10-11T11:01:20.590Z,84.12
2017-10-11T11:02:33.168Z,82.4
2017-10-11T11:03:45.738Z,82.11
2017-10-11T11:04:58.002Z,80.96
2017-10-11T11:06:10.255Z,80.19
2017-10-11T11:07:22.843Z,79.91
2017-10-11T11:08:35.395Z,79.43
2017-10-11T11:09:47.966Z,79.91
2017-10-11T11:11:00.537Z,79.05
2017-10-11T11:12:12.783Z,78.76
2017-10-11T11:13:25.029Z,78.47
2017-10-11T11:14:37.599Z,77.99
2017-10-11T11:15:50.177Z,77.04
2017-10-11T11:17:02.107Z,76.56
2017-10-11T11:18:14.355Z,74.74
2017-10-11T11:19:26.609Z,74.16
2017-10-11T11:20:38.877Z,72.83
2017-10-11T11:21:51.129Z,71.87
2017-10-11T11:23:03.693Z,72.83
2017-10-11T11:24:15.950Z,71.77
2017-10-11T11:25:28.527Z,72.06
2017-10-11T11:26:41.131Z,72.25
2017-10-11T11:27:53.404Z,73.97
2017-10-11T11:29:05.647Z,74.45
2017-10-11T11:30:18.235Z,73.88
2017-10-11T11:31:30.813Z,73.02
2017-10-11T11:32:43.064Z,72.63
2017-10-11T11:33:54.979Z,71.77
2017-10-11T11:35:07.549Z,70.24
2017-10-11T11:36:19.798Z,69.86
2017-10-11T11:37:32.370Z,71.11
2017-10-11T11:38:44.963Z,71.68
2017-10-11T11:39:57.208Z,71.77
2017-10-11T11:41:09.453Z,72.16
2017-10-11T11:42:21.076Z,71.39
2017-10-11T11:43:33.345Z,71.58
2017-10-11T11:44:44.965Z,70.91
2017-10-11T11:45:57.535Z,70.81
2017-10-11T11:47:10.125Z,71.3
2017-10-11T11:48:22.703Z,70.91
2017-10-11T11:49:35.275Z,71.97
2017-10-11T11:50:47.567Z,71.11
2017-10-11T11:51:59.814Z,71.01
2017-10-11T11:53:12.385Z,70.81
2017-10-11T11:54:24.955Z,70.05
2017-10-11T11:55:37.526Z,70.43
2017-10-11T11:56:49.772Z,69.76
2017-10-11T11:58:02.344Z,69.57
2017-10-11T11:59:14.612Z,69.09
2017-10-11T12:00:26.860Z,69.67
2017-10-11T12:01:39.430Z,69.09
2017-10-11T12:02:52.000Z,69.29
2017-10-11T12:04:04.588Z,68.52
2017-10-11T12:05:16.518Z,68.33
2017-10-11T12:06:28.766Z,68.42
2017-10-11T12:07:41.026Z,68.8
2017-10-11T12:08:52.970Z,68.23
2017-10-11T12:10:04.917Z,68.52
2017-10-11T12:11:17.495Z,69.09
2017-10-11T12:12:30.091Z,68.62
2017-10-11T12:13:42.739Z,68.62
2017-10-11T12:14:55.330Z,68.52
2017-10-11T12:16:07.251Z,67.76
2017-10-11T12:17:19.497Z,68.33
2017-10-11T12:18:31.119Z,68.42
2017-10-11T12:19:43.364Z,69.19
2017-10-11T12:20:55.609Z,69.19
2017-10-11T12:22:08.204Z,71.77
2017-10-11T12:23:20.469Z,70.91
2017-10-11T12:24:33.047Z,70.05
2017-10-11T12:25:45.320Z,72.16
2017-10-11T12:26:57.566Z,72.06
2017-10-11T12:28:09.834Z,70.05
2017-10-11T12:29:22.098Z,70.05
2017-10-11T12:30:34.675Z,69.67
2017-10-11T12:31:47.271Z,69.67
2017-10-11T12:32:59.848Z,69.67
2017-10-11T12:34:12.111Z,69.38
2017-10-11T12:35:24.059Z,69.76
2017-10-11T12:36:36.645Z,69.19
2017-10-11T12:37:49.499Z,69.67
2017-10-11T12:39:02.071Z,72.44
2017-10-11T12:40:14.340Z,71.01
2017-10-11T12:41:26.911Z,70.53
2017-10-11T12:42:39.498Z,70.05
2017-10-11T12:43:51.426Z,69.57
2017-10-11T12:45:03.997Z,70.81
2017-10-11T12:46:16.568Z,70.56
2017-10-11T12:47:28.488Z,69.8
2017-10-11T12:48:40.751Z,69.7
2017-10-11T12:49:53.006Z,70.28
2017-10-11T12:51:04.926Z,71.62
2017-10-11T12:52:17.173Z,75.26
2017-10-11T12:53:29.443Z,74.01
2017-10-11T12:54:42.039Z,71.62
2017-10-11T12:55:53.960Z,72.96
2017-10-11T12:57:05.884Z,73.91
2017-10-11T12:58:18.125Z,74.3
2017-10-11T12:59:30.696Z,75.83
2017-10-11T13:00:42.959Z,76.64
2017-10-11T13:01:55.530Z,75.1
2017-10-11T13:03:08.099Z,77.5
2017-10-11T13:04:20.696Z,77.21
2017-10-11T13:05:32.949Z,76.64
2017-10-11T13:06:45.512Z,75.1
2017-10-11T13:07:58.083Z,75.48
2017-10-11T13:09:10.336Z,79.6
2017-10-11T13:10:22.606Z,80.12
2017-10-11T13:11:34.851Z,80.76
2017-10-11T13:12:46.773Z,85.39
2017-10-11T13:13:59.343Z,83.86
2017-10-11T13:15:11.592Z,87.6
2017-10-11T13:16:24.185Z,88.65
2017-10-11T13:17:36.432Z,86.45
2017-10-11T13:18:49.001Z,85.39
2017-10-11T13:20:01.572Z,86.54
2017-10-11T13:21:13.192Z,87.6
2017-10-11T13:22:25.439Z,88.08
2017-10-11T13:23:37.076Z,89.23
2017-10-11T13:24:49.327Z,94.89
2017-10-11T13:26:01.593Z,93.83
2017-10-11T13:27:13.523Z,91.53
2017-10-11T13:28:26.104Z,89.13
2017-10-11T13:29:38.662Z,90.86
2017-10-11T13:30:51.233Z,92.39
2017-10-11T13:32:03.477Z,93.73
2017-10-11T13:33:16.050Z,92.01
2017-10-11T13:34:27.987Z,92.87
2017-10-11T13:35:40.557Z,94.4
2017-10-11T13:36:52.813Z,92.87
2017-10-11T13:38:04.732Z,92.97
2017-10-11T13:39:17.301Z,92.1
2017-10-11T13:40:29.565Z,92.49
2017-10-11T13:41:41.522Z,92.1
2017-10-11T13:42:53.782Z,91.14
2017-10-11T13:44:06.335Z,92.87
2017-10-11T13:45:18.280Z,92.1
2017-10-11T13:46:30.544Z,92.68
2017-10-11T13:47:43.122Z,94.5
2017-10-11T13:48:55.368Z,94.02
2017-10-11T13:50:06.965Z,95.17
2017-10-11T13:51:18.907Z,92.92
2017-10-11T13:52:31.482Z,94.59
2017-10-11T13:53:44.099Z,92.44
2017-10-11T13:54:56.363Z,91.67
2017-10-11T13:56:07.990Z,91.58
2017-10-11T13:57:20.562Z,91
2017-10-11T13:58:32.182Z,89.28
2017-10-11T13:59:44.427Z,89.47
2017-10-11T14:00:56.676Z,89.09
2017-10-11T14:02:09.269Z,89.28
2017-10-11T14:03:21.208Z,87.9
2017-10-11T14:04:33.453Z,89.95
2017-10-11T14:05:46.034Z,89.43
2017-10-11T14:06:58.602Z,88.85
2017-10-11T14:08:10.547Z,91.05
2017-10-11T14:09:23.137Z,89.33
2017-10-11T14:10:35.711Z,90.86
2017-10-11T14:11:48.277Z,90.58
2017-10-11T14:13:00.847Z,90
2017-10-11T14:14:13.100Z,89.81
2017-10-11T14:15:25.347Z,89.81
2017-10-11T14:16:37.592Z,87.8
2017-10-11T14:17:50.180Z,90.19
2017-10-11T14:19:02.434Z,88.95
2017-10-11T14:20:15.033Z,87.7
2017-10-11T14:21:27.601Z,87.41
2017-10-11T14:22:39.850Z,86.84
2017-10-11T14:23:51.783Z,87.03
2017-10-11T14:25:04.037Z,88.47
2017-10-11T14:26:16.631Z,87.13
2017-10-11T14:27:28.878Z,86.94
2017-10-11T14:28:41.451Z,86.74
2017-10-11T14:29:53.695Z,86.94
2017-10-11T14:31:05.966Z,86.74
2017-10-11T14:32:18.536Z,86.36
2017-10-11T14:33:30.482Z,86.84
2017-10-11T14:34:43.069Z,87.23
2017-10-11T14:35:55.323Z,85.69
2017-10-11T14:37:06.946Z,85.31
2017-10-11T14:38:19.214Z,86.08
2017-10-11T14:39:31.786Z,86.94
2017-10-11T14:40:44.056Z,87.41
2017-10-11T14:41:56.625Z,87.03
2017-10-11T14:43:08.573Z,88.52
2017-10-11T14:44:20.517Z,87.37
2017-10-11T14:45:32.763Z,87.23
2017-10-11T14:46:45.358Z,86.65
2017-10-11T14:47:57.929Z,86.08
2017-10-11T14:49:09.879Z,85.5
2017-10-11T14:50:22.445Z,84.83
2017-10-11T14:51:35.017Z,86.55
2017-10-11T14:52:47.586Z,87.13
2017-10-11T14:53:59.199Z,84.64
2017-10-11T14:55:11.132Z,86.84
2017-10-11T14:56:23.699Z,86.84
2017-10-11T14:57:35.945Z,87.51
2017-10-11T14:58:48.206Z,88.18
2017-10-11T15:00:00.136Z,86.84
2017-10-11T15:01:12.707Z,86.08
2017-10-11T15:02:24.952Z,86.94
2017-10-11T15:03:36.889Z,86.74
2017-10-11T15:04:48.860Z,86.08
2017-10-11T15:06:01.414Z,87.51
2017-10-11T15:07:13.660Z,87.41
2017-10-11T15:08:26.231Z,87.03
2017-10-11T15:09:38.800Z,87.41
2017-10-11T15:10:50.724Z,87.9
2017-10-11T15:12:03.292Z,87.8
2017-10-11T15:13:15.581Z,87.32
2017-10-11T15:14:27.851Z,87.61
2017-10-11T15:15:39.778Z,88.76
2017-10-11T15:16:51.698Z,88.47
2017-10-11T15:18:03.945Z,88.56
2017-10-11T15:19:16.219Z,92.11
2017-10-11T15:20:28.478Z,89.62
2017-10-11T15:21:40.708Z,88.52
2017-10-11T15:22:52.628Z,87.99
2017-10-11T15:24:05.201Z,89.23
2017-10-11T15:25:17.470Z,87.99
2017-10-11T15:26:30.039Z,88.47
2017-10-11T15:27:42.303Z,89.62
2017-10-11T15:28:54.555Z,88.66
2017-10-11T15:30:06.477Z,88.95
2017-10-11T15:31:19.048Z,88.85
2017-10-11T15:32:31.643Z,88.66
2017-10-11T15:33:44.217Z,88.37
2017-10-11T15:34:56.784Z,87.8
2017-10-11T15:36:09.356Z,87.8